createdAt,value
2017-06-24T00:00:19.975Z,93.30
2017-06-24T00:02:46.421Z,93.40
2017-06-24T00:05:13.576Z,93.30
2017-06-24T00:07:40.832Z,93.40
2017-06-24T00:10:08.031Z,93.50
2017-06-24T00:12:34.425Z,93.40
2017-06-24T00:15:00.825Z,93.50
2017-06-24T00:17:28.397Z,93.20
2017-06-24T00:19:54.807Z,93.30
2017-06-24T00:22:21.253Z,93.30
2017-06-24T00:24:47.788Z,93.40
2017-06-24T00:27:14.293Z,93.50
2017-06-24T00:29:40.696Z,93.30
2017-06-24T00:32:07.145Z,93.30
2017-06-24T00:34:33.552Z,93.50
2017-06-24T00:37:00.024Z,93.60
2017-06-24T00:39:26.452Z,93.60
2017-06-24T00:41:52.849Z,93.70
2017-06-24T00:44:19.284Z,93.50
2017-06-24T00:46:45.788Z,93.40
2017-06-24T00:49:12.208Z,93.50
2017-06-24T00:51:38.605Z,93.30
2017-06-24T00:54:05.053Z,93.40
2017-06-24T00:56:31.488Z,93.60
2017-06-24T00:58:57.902Z,93.50
2017-06-24T01:01:24.349Z,93.30
2017-06-24T01:03:50.789Z,93.40
2017-06-24T01:06:17.209Z,93.60
2017-06-24T01:08:43.747Z,93.50
2017-06-24T01:11:10.167Z,93.80
2017-06-24T01:13:36.569Z,93.60
2017-06-24T01:16:03.772Z,93.60
2017-06-24T01:18:30.212Z,93.50
2017-06-24T01:20:56.608Z,93.50
2017-06-24T01:23:23.085Z,93.30
2017-06-24T01:25:49.532Z,93.50
2017-06-24T01:28:16.068Z,93.40
2017-06-24T01:30:42.632Z,93.60
2017-06-24T01:33:09.057Z,93.60
2017-06-24T01:35:36.205Z,93.60
2017-06-24T01:38:03.485Z,93.60
2017-06-24T01:40:29.917Z,93.60
2017-06-24T01:42:56.372Z,93.70
2017-06-24T01:45:22.816Z,93.60
2017-06-24T01:47:49.272Z,93.60
2017-06-24T01:50:15.717Z,93.60
2017-06-24T01:52:42.169Z,93.60
2017-06-24T01:55:08.641Z,93.80
2017-06-24T01:57:35.072Z,93.90
2017-06-24T02:00:01.529Z,93.80
2017-06-24T02:02:27.932Z,93.70
2017-06-24T02:04:54.354Z,93.90
2017-06-24T02:07:20.901Z,93.90
2017-06-24T02:09:47.421Z,93.70
2017-06-24T02:12:13.837Z,93.70
2017-06-24T02:14:40.309Z,93.60
2017-06-24T02:17:06.843Z,93.60
2017-06-24T02:19:33.244Z,93.60
2017-06-24T02:21:59.676Z,93.60
2017-06-24T02:24:26.088Z,93.50
2017-06-24T02:26:53.288Z,93.40
2017-06-24T02:29:19.728Z,93.40
2017-06-24T02:31:46.136Z,93.40
2017-06-24T02:34:12.569Z,93.30
2017-06-24T02:36:39.074Z,93.50
2017-06-24T02:39:06.223Z,93.50
2017-06-24T02:41:33.453Z,93.90
2017-06-24T02:43:59.860Z,93.40
2017-06-24T02:46:26.320Z,93.60
2017-06-24T02:48:52.749Z,93.60
2017-06-24T02:51:19.152Z,93.40
2017-06-24T02:53:45.555Z,93.60
2017-06-24T02:56:11.997Z,93.70
2017-06-24T02:58:38.508Z,93.70
2017-06-24T03:01:05.660Z,93.70
2017-06-24T03:03:32.865Z,93.90
2017-06-24T03:05:59.308Z,93.80
2017-06-24T03:08:25.736Z,94.00
2017-06-24T03:10:52.132Z,93.90
2017-06-24T03:13:18.572Z,93.80
2017-06-24T03:15:44.985Z,93.80
2017-06-24T03:18:12.212Z,94.00
2017-06-24T03:20:38.621Z,93.90
2017-06-24T03:23:05.057Z,93.80
2017-06-24T03:25:31.505Z,93.70
2017-06-24T03:27:58.004Z,93.60
2017-06-24T03:30:24.429Z,93.80
2017-06-24T03:32:50.865Z,93.80
2017-06-24T03:35:17.317Z,94.00
2017-06-24T03:37:43.753Z,94.10
2017-06-24T03:40:10.195Z,94.00
2017-06-24T03:42:36.616Z,94.10
2017-06-24T03:45:03.025Z,94.00
2017-06-24T03:47:29.636Z,94.10
2017-06-24T03:49:56.881Z,94.00
2017-06-24T03:52:23.432Z,93.90
2017-06-24T03:54:49.868Z,94.00
2017-06-24T03:57:16.341Z,93.90
2017-06-24T03:59:42.786Z,93.90
2017-06-24T04:02:09.201Z,93.80
2017-06-24T04:04:35.661Z,93.90
2017-06-24T04:07:02.177Z,94.00
2017-06-24T04:09:28.704Z,93.90
2017-06-24T04:11:55.096Z,93.80
2017-06-24T04:14:21.664Z,93.80
2017-06-24T04:16:48.153Z,93.70
2017-06-24T04:19:14.560Z,93.60
2017-06-24T04:21:40.960Z,93.80
2017-06-24T04:24:07.391Z,94.00
2017-06-24T04:26:33.889Z,93.80
2017-06-24T04:29:01.077Z,94.00
2017-06-24T04:31:27.473Z,94.00
2017-06-24T04:33:54.603Z,94.00
2017-06-24T04:36:21.344Z,93.90
2017-06-24T04:38:47.781Z,94.10
2017-06-24T04:41:14.197Z,94.10
2017-06-24T04:43:40.654Z,94.00
2017-06-24T04:46:07.797Z,94.30
2017-06-24T04:48:34.300Z,94.10
2017-06-24T04:51:00.888Z,94.30
2017-06-24T04:53:28.313Z,94.60
2017-06-24T04:55:54.777Z,94.50
2017-06-24T04:58:21.265Z,94.50
2017-06-24T05:00:47.732Z,94.50
2017-06-24T05:03:14.879Z,94.60
2017-06-24T05:05:42.017Z,94.60
2017-06-24T05:08:08.773Z,94.60
2017-06-24T05:10:35.837Z,94.30
2017-06-24T05:13:03.085Z,93.10
2017-06-24T05:15:30.332Z,93.70
2017-06-24T05:17:57.460Z,93.60
2017-06-24T05:20:23.872Z,93.90
2017-06-24T05:22:50.324Z,93.60
2017-06-24T05:25:16.796Z,93.90
2017-06-24T05:27:43.595Z,93.90
2017-06-24T05:30:10.302Z,93.90
2017-06-24T05:32:36.878Z,93.90
2017-06-24T05:35:03.410Z,93.50
2017-06-24T05:37:29.929Z,93.10
2017-06-24T05:39:56.381Z,93.10
2017-06-24T05:42:22.826Z,93.30
2017-06-24T05:44:50.049Z,93.30
2017-06-24T05:47:16.489Z,93.30
2017-06-24T05:49:43.044Z,93.20
2017-06-24T05:52:09.501Z,92.80
2017-06-24T05:54:35.909Z,92.90
2017-06-24T05:57:02.545Z,92.90
2017-06-24T05:59:28.963Z,91.70
2017-06-24T06:01:55.365Z,91.70
2017-06-24T06:04:21.804Z,91.50
2017-06-24T06:06:48.236Z,91.40
2017-06-24T06:09:14.653Z,90.60
2017-06-24T06:11:41.129Z,90.60
2017-06-24T06:14:07.780Z,89.70
2017-06-24T06:16:34.349Z,90.30
2017-06-24T06:19:00.748Z,86.10
2017-06-24T06:21:27.195Z,87.00
2017-06-24T06:23:54.350Z,87.80
2017-06-24T06:26:21.518Z,87.10
2017-06-24T06:28:48.124Z,87.00
2017-06-24T06:31:15.257Z,85.50
2017-06-24T06:33:41.656Z,85.40
2017-06-24T06:36:08.132Z,84.60
2017-06-24T06:38:34.650Z,83.40
2017-06-24T06:41:01.068Z,81.60
2017-06-24T06:43:27.500Z,82.70
2017-06-24T06:45:53.941Z,85.10
2017-06-24T06:48:20.381Z,82.70
2017-06-24T06:50:46.822Z,81.30
2017-06-24T06:53:13.969Z,81.50
2017-06-24T06:55:41.409Z,81.20
2017-06-24T06:58:07.987Z,81.10
2017-06-24T07:00:34.464Z,81.50
2017-06-24T07:03:00.916Z,81.10
2017-06-24T07:05:27.709Z,81.30
2017-06-24T07:07:55.104Z,80.60
2017-06-24T07:10:21.539Z,79.70
2017-06-24T07:12:48.498Z,79.70
2017-06-24T07:15:15.154Z,80.20
2017-06-24T07:17:41.833Z,81.60
2017-06-24T07:20:08.518Z,82.00
2017-06-24T07:22:34.936Z,80.00
2017-06-24T07:25:01.352Z,81.30
2017-06-24T07:27:28.140Z,81.20
2017-06-24T07:29:54.902Z,80.50
2017-06-24T07:32:21.485Z,80.00
2017-06-24T07:34:47.926Z,80.10
2017-06-24T07:37:14.449Z,75.80
2017-06-24T07:39:40.978Z,76.90
2017-06-24T07:42:07.420Z,74.80
2017-06-24T07:44:33.872Z,75.70
2017-06-24T07:47:00.344Z,74.70
2017-06-24T07:49:26.769Z,74.80
2017-06-24T07:51:54.006Z,77.80
2017-06-24T07:54:20.464Z,77.80
2017-06-24T07:56:47.353Z,77.00
2017-06-24T07:59:14.841Z,76.00
2017-06-24T08:01:41.284Z,76.00
2017-06-24T08:04:08.492Z,75.00
2017-06-24T08:06:34.945Z,74.10
2017-06-24T08:09:01.353Z,73.90
2017-06-24T08:11:27.799Z,72.80
2017-06-24T08:13:54.478Z,72.00
2017-06-24T08:16:20.954Z,72.50
2017-06-24T08:18:47.366Z,73.20
2017-06-24T08:21:13.774Z,74.00
2017-06-24T08:23:40.974Z,72.70
2017-06-24T08:26:07.393Z,72.60
2017-06-24T08:28:33.849Z,73.00
2017-06-24T08:31:00.330Z,73.20
2017-06-24T08:33:26.753Z,75.70
2017-06-24T08:35:53.172Z,71.60
2017-06-24T08:38:19.593Z,70.70
2017-06-24T08:40:46.044Z,69.60
2017-06-24T08:43:12.443Z,69.40
2017-06-24T08:45:38.876Z,70.20
2017-06-24T08:48:05.359Z,69.90
2017-06-24T08:50:32.500Z,69.80
2017-06-24T08:52:59.661Z,69.40
2017-06-24T08:55:26.860Z,69.50
2017-06-24T08:57:53.297Z,69.30
2017-06-24T09:00:19.706Z,69.50
2017-06-24T09:02:46.236Z,68.60
2017-06-24T09:05:13.249Z,69.40
2017-06-24T09:07:40.801Z,69.70
2017-06-24T09:10:07.520Z,68.80
2017-06-24T09:12:34.725Z,67.90
2017-06-24T09:15:01.581Z,67.70
2017-06-24T09:17:28.038Z,66.90
2017-06-24T09:19:54.486Z,68.80
2017-06-24T09:22:20.881Z,69.30
2017-06-24T09:24:47.285Z,66.90
2017-06-24T09:27:13.833Z,66.90
2017-06-24T09:29:40.252Z,67.00
2017-06-24T09:32:07.585Z,64.90
2017-06-24T09:34:34.844Z,64.00
2017-06-24T09:37:01.356Z,63.90
2017-06-24T09:39:27.827Z,61.70
2017-06-24T09:41:54.980Z,62.30
2017-06-24T09:44:22.129Z,62.20
2017-06-24T09:46:48.731Z,63.30
2017-06-24T09:49:15.141Z,63.90
2017-06-24T09:51:41.775Z,64.30
2017-06-24T09:54:09.273Z,66.10
2017-06-24T09:56:35.780Z,65.80
2017-06-24T09:59:02.226Z,65.30
2017-06-24T10:01:28.669Z,63.70
2017-06-24T10:03:55.098Z,64.00
2017-06-24T10:06:22.173Z,62.00
2017-06-24T10:08:48.817Z,60.70
2017-06-24T10:11:15.232Z,60.50
2017-06-24T10:13:42.409Z,61.10
2017-06-24T10:16:08.885Z,60.90
2017-06-24T10:18:35.332Z,59.50
2017-06-24T10:21:02.176Z,56.50
2017-06-24T10:23:28.885Z,56.80
2017-06-24T10:25:55.441Z,58.10
2017-06-24T10:28:22.048Z,58.30
2017-06-24T10:30:52.834Z,62.20
2017-06-24T10:33:19.269Z,59.70
2017-06-24T10:35:45.709Z,65.00
2017-06-24T10:38:12.916Z,59.40
2017-06-24T10:40:39.473Z,58.80
2017-06-24T10:43:06.560Z,61.50
2017-06-24T10:45:33.217Z,58.70
2017-06-24T10:47:59.876Z,58.90
2017-06-24T10:50:26.319Z,57.90
2017-06-24T10:52:52.725Z,60.00
2017-06-24T10:55:19.164Z,56.50
2017-06-24T10:57:45.621Z,59.20
2017-06-24T11:00:12.576Z,56.80
2017-06-24T11:02:39.339Z,56.30
2017-06-24T11:05:05.865Z,57.30
2017-06-24T11:07:32.397Z,57.40
2017-06-24T11:09:58.800Z,57.10
2017-06-24T11:12:25.250Z,57.40
2017-06-24T11:14:51.658Z,56.10
2017-06-24T11:17:18.140Z,56.80
2017-06-24T11:19:44.581Z,56.90
2017-06-24T11:22:11.736Z,56.70
2017-06-24T11:24:38.901Z,56.20
2017-06-24T11:27:05.409Z,56.20
2017-06-24T11:29:32.744Z,56.40
2017-06-24T11:31:59.175Z,56.30
2017-06-24T11:34:25.625Z,55.80
2017-06-24T11:36:52.845Z,56.20
2017-06-24T11:39:19.273Z,56.10
2017-06-24T11:42:25.417Z,53.30
2017-06-24T11:44:51.812Z,53.30
2017-06-24T11:47:18.293Z,53.90
2017-06-24T11:49:44.727Z,51.40
2017-06-24T11:52:11.136Z,51.60
2017-06-24T11:54:37.544Z,52.50
2017-06-24T11:57:04.789Z,52.10
2017-06-24T11:59:31.197Z,51.60
2017-06-24T12:01:57.597Z,53.80
2017-06-24T12:04:24.035Z,52.80
2017-06-24T12:06:50.515Z,51.20
2017-06-24T12:09:16.909Z,50.90
2017-06-24T12:11:43.455Z,50.80
2017-06-24T12:14:10.224Z,50.30
2017-06-24T12:16:36.872Z,52.20
2017-06-24T12:19:04.013Z,53.70
2017-06-24T12:21:30.420Z,53.60
2017-06-24T12:23:56.853Z,49.90
2017-06-24T12:26:23.260Z,48.90
2017-06-24T12:28:49.707Z,50.70
2017-06-24T12:31:16.107Z,48.40
2017-06-24T12:33:42.504Z,47.20
2017-06-24T12:36:08.947Z,46.60
2017-06-24T12:38:35.452Z,47.50
2017-06-24T12:41:01.851Z,47.00
2017-06-24T12:43:28.379Z,46.80
2017-06-24T12:45:54.805Z,46.80
2017-06-24T12:48:22.008Z,47.60
2017-06-24T12:50:48.537Z,47.50
2017-06-24T12:53:15.865Z,45.60
2017-06-24T12:55:42.259Z,45.80
2017-06-24T12:58:09.504Z,44.80
2017-06-24T13:00:35.904Z,44.80
2017-06-24T13:03:02.332Z,45.80
2017-06-24T13:05:28.760Z,44.20
2017-06-24T13:07:55.233Z,44.30
2017-06-24T13:10:21.753Z,44.50
2017-06-24T13:12:48.160Z,46.30
2017-06-24T13:15:14.597Z,45.90
2017-06-24T13:17:41.069Z,42.50
2017-06-24T13:20:07.516Z,43.90
2017-06-24T13:22:33.921Z,42.10
2017-06-24T13:25:00.312Z,44.90
2017-06-24T13:27:26.814Z,44.30
2017-06-24T13:29:54.079Z,44.10
2017-06-24T13:32:20.572Z,44.10
2017-06-24T13:34:46.961Z,45.60
2017-06-24T13:37:13.428Z,45.50
2017-06-24T13:39:39.957Z,46.10
2017-06-24T13:42:06.364Z,46.60
2017-06-24T13:44:32.771Z,45.40
2017-06-24T13:46:59.469Z,48.30
2017-06-24T13:49:25.860Z,48.10
2017-06-24T13:51:52.275Z,49.20
2017-06-24T13:54:19.572Z,48.90
2017-06-24T13:56:46.012Z,48.80
2017-06-24T13:59:12.779Z,50.60
2017-06-24T14:01:39.229Z,48.90
2017-06-24T14:04:07.614Z,46.50
2017-06-24T14:06:34.241Z,46.40
2017-06-24T14:09:00.796Z,48.20
2017-06-24T14:11:27.229Z,49.70
2017-06-24T14:13:53.648Z,50.20
2017-06-24T14:16:20.841Z,46.60
2017-06-24T14:18:47.287Z,46.60
2017-06-24T14:21:13.680Z,47.50
2017-06-24T14:23:40.112Z,46.00
2017-06-24T14:26:06.583Z,46.90
2017-06-24T14:28:33.036Z,48.70
2017-06-24T14:30:59.452Z,48.10
2017-06-24T14:33:25.932Z,48.70
2017-06-24T14:35:52.356Z,51.00
2017-06-24T14:38:18.895Z,52.90
2017-06-24T14:40:45.332Z,50.50
2017-06-24T14:43:12.490Z,51.10
2017-06-24T14:45:39.684Z,51.80
2017-06-24T14:48:06.134Z,51.70
2017-06-24T14:50:32.536Z,52.30
2017-06-24T14:52:59.076Z,51.70
2017-06-24T14:55:25.469Z,50.90
2017-06-24T14:57:52.690Z,52.10
2017-06-24T15:00:19.125Z,52.20
2017-06-24T15:02:45.521Z,53.40
2017-06-24T15:05:11.934Z,53.00
2017-06-24T15:07:38.452Z,53.00
2017-06-24T15:10:05.620Z,52.90
2017-06-24T15:12:31.996Z,52.90
2017-06-24T15:14:58.453Z,53.30
2017-06-24T15:17:24.984Z,55.50
2017-06-24T15:19:51.374Z,54.20
2017-06-24T15:22:17.807Z,54.70
2017-06-24T15:24:44.217Z,54.20
2017-06-24T15:27:10.697Z,55.60
2017-06-24T15:29:37.129Z,55.30
2017-06-24T15:32:03.930Z,55.00
2017-06-24T15:34:33.356Z,55.80
2017-06-24T15:37:00.697Z,54.50
2017-06-24T15:39:27.128Z,54.50
2017-06-24T15:41:53.527Z,54.60
2017-06-24T15:44:20.699Z,57.70
2017-06-24T15:46:47.167Z,57.70
2017-06-24T15:49:13.548Z,55.80
2017-06-24T15:51:40.747Z,56.30
2017-06-24T15:54:07.184Z,56.30
2017-06-24T15:56:33.997Z,57.20
2017-06-24T15:59:00.421Z,54.70
2017-06-24T16:01:26.961Z,56.50
2017-06-24T16:03:53.672Z,56.40
2017-06-24T16:06:20.136Z,56.70
2017-06-24T16:08:46.628Z,56.50
2017-06-24T16:11:13.308Z,57.20
2017-06-24T16:13:39.756Z,57.90
2017-06-24T16:16:06.374Z,56.60
2017-06-24T16:18:32.891Z,58.40
2017-06-24T16:20:59.268Z,57.40
2017-06-24T16:23:25.710Z,56.00
2017-06-24T16:25:52.093Z,57.70
2017-06-24T16:28:18.568Z,56.70
2017-06-24T16:30:45.001Z,56.60
2017-06-24T16:33:11.393Z,58.40
2017-06-24T16:35:38.532Z,58.10
2017-06-24T16:38:05.775Z,57.90
2017-06-24T16:40:32.204Z,57.90
2017-06-24T16:42:58.676Z,57.40
2017-06-24T16:45:25.525Z,58.60
2017-06-24T16:47:52.093Z,58.50
2017-06-24T16:50:18.639Z,57.70
2017-06-24T16:52:45.044Z,58.40
2017-06-24T16:55:11.465Z,59.40
2017-06-24T16:57:37.960Z,59.00
2017-06-24T17:00:04.369Z,60.30
2017-06-24T17:02:30.764Z,60.30
2017-06-24T17:04:57.515Z,62.20
2017-06-24T17:07:24.945Z,62.30
2017-06-24T17:09:51.373Z,62.30
2017-06-24T17:12:18.653Z,61.50
2017-06-24T17:14:45.065Z,61.50
2017-06-24T17:17:11.557Z,62.10
2017-06-24T17:19:38.005Z,63.00
2017-06-24T17:22:04.397Z,63.30
2017-06-24T17:24:30.855Z,63.30
2017-06-24T17:26:57.287Z,63.50
2017-06-24T17:29:23.697Z,63.80
2017-06-24T17:31:50.366Z,63.70
2017-06-24T17:34:16.828Z,64.40
2017-06-24T17:36:43.331Z,64.90
2017-06-24T17:39:09.792Z,65.70
2017-06-24T17:41:36.941Z,67.10
2017-06-24T17:44:04.089Z,68.40
2017-06-24T17:46:31.352Z,68.20
2017-06-24T17:48:58.495Z,68.80
2017-06-24T17:51:25.648Z,68.60
2017-06-24T17:53:52.916Z,69.60
2017-06-24T17:56:19.312Z,69.60
2017-06-24T17:58:45.809Z,70.10
2017-06-24T18:01:12.257Z,71.20
2017-06-24T18:03:38.664Z,71.40
2017-06-24T18:06:05.089Z,72.20
2017-06-24T18:08:31.586Z,72.10
2017-06-24T18:10:57.984Z,72.70
2017-06-24T18:13:24.376Z,72.70
2017-06-24T18:15:50.864Z,72.60
2017-06-24T18:18:17.277Z,72.40
2017-06-24T18:20:43.708Z,72.60
2017-06-24T18:23:10.151Z,72.40
2017-06-24T18:25:36.833Z,72.30
2017-06-24T18:28:03.356Z,71.90
2017-06-24T18:30:30.504Z,72.60
2017-06-24T18:32:57.382Z,71.80
2017-06-24T18:35:23.821Z,72.30
2017-06-24T18:37:50.282Z,72.40
2017-06-24T18:40:16.993Z,72.40
2017-06-24T18:42:44.214Z,73.70
2017-06-24T18:45:10.659Z,73.10
2017-06-24T18:47:37.184Z,73.10
2017-06-24T18:50:13.621Z,73.40
2017-06-24T18:52:40.841Z,73.30
2017-06-24T18:55:07.245Z,73.20
2017-06-24T18:57:33.721Z,72.50
2017-06-24T19:00:00.174Z,73.10
2017-06-24T19:02:26.616Z,74.00
2017-06-24T19:04:53.009Z,73.90
2017-06-24T19:07:19.488Z,73.80
2017-06-24T19:09:46.959Z,74.60
2017-06-24T19:12:13.493Z,74.70
2017-06-24T19:14:40.676Z,74.80
2017-06-24T19:17:07.136Z,74.80
2017-06-24T19:19:33.540Z,75.50
2017-06-24T19:21:59.984Z,75.60
2017-06-24T19:24:26.421Z,76.20
2017-06-24T19:26:53.277Z,76.40
2017-06-24T19:29:19.781Z,76.50
2017-06-24T19:31:46.237Z,76.70
2017-06-24T19:34:12.645Z,77.10
2017-06-24T19:36:39.153Z,77.30
2017-06-24T19:39:06.352Z,77.40
2017-06-24T19:41:32.773Z,77.40
2017-06-24T19:43:59.161Z,77.30
2017-06-24T19:46:25.588Z,77.50
2017-06-24T19:48:52.808Z,77.60
2017-06-24T19:51:19.940Z,78.80
2017-06-24T19:53:46.720Z,78.70
2017-06-24T19:56:13.176Z,77.80
2017-06-24T19:58:39.638Z,78.10
2017-06-24T20:01:06.073Z,78.50
2017-06-24T20:03:32.932Z,78.40
2017-06-24T20:05:59.360Z,77.50
2017-06-24T20:08:26.105Z,77.80
2017-06-24T20:10:53.255Z,76.90
2017-06-24T20:13:20.389Z,77.30
2017-06-24T20:15:46.824Z,76.90
2017-06-24T20:18:14.217Z,77.20
2017-06-24T20:20:40.700Z,77.20
2017-06-24T20:23:07.154Z,77.10
2017-06-24T20:25:33.567Z,77.10
2017-06-24T20:28:00.443Z,76.50
2017-06-24T20:30:27.009Z,75.20
2017-06-24T20:32:53.632Z,74.80
2017-06-24T20:35:20.053Z,74.50
2017-06-24T20:37:46.663Z,74.50
2017-06-24T20:40:13.075Z,74.20
2017-06-24T20:42:39.496Z,72.70
2017-06-24T20:45:05.928Z,72.60
2017-06-24T20:47:32.380Z,72.10
2017-06-24T20:49:58.787Z,73.30
2017-06-24T20:52:25.220Z,73.10
2017-06-24T20:54:51.611Z,72.10
2017-06-24T20:57:18.816Z,74.20
2017-06-24T20:59:45.252Z,73.30
2017-06-24T21:02:11.652Z,73.20
2017-06-24T21:04:38.060Z,73.10
2017-06-24T21:07:04.600Z,72.30
2017-06-24T21:09:31.736Z,71.80
2017-06-24T21:11:58.136Z,71.80
2017-06-24T21:14:24.556Z,71.80
2017-06-24T21:16:51.418Z,72.50
2017-06-24T21:19:17.888Z,73.40
2017-06-24T21:21:45.074Z,74.40
2017-06-24T21:24:11.529Z,73.80
2017-06-24T21:26:37.973Z,74.70
2017-06-24T21:29:04.746Z,75.00
2017-06-24T21:31:31.297Z,74.90
2017-06-24T21:33:57.680Z,75.40
2017-06-24T21:36:24.080Z,75.90
2017-06-24T21:38:50.568Z,75.20
2017-06-24T21:41:16.969Z,75.40
2017-06-24T21:43:43.368Z,75.80
2017-06-24T21:46:09.792Z,75.30
2017-06-24T21:48:36.285Z,75.00
2017-06-24T21:51:02.731Z,75.60
2017-06-24T21:53:29.128Z,75.50
2017-06-24T21:55:55.533Z,75.60
2017-06-24T21:58:22.044Z,75.70
2017-06-24T22:00:48.424Z,75.30
2017-06-24T22:03:14.828Z,75.60
2017-06-24T22:05:41.286Z,75.00
2017-06-24T22:08:07.743Z,73.50
2017-06-24T22:10:34.206Z,72.90
2017-06-24T22:13:00.638Z,72.10
2017-06-24T22:15:27.071Z,71.80
2017-06-24T22:17:53.587Z,72.10
2017-06-24T22:20:19.991Z,71.90
2017-06-24T22:22:46.450Z,72.10
2017-06-24T22:25:12.842Z,72.40
2017-06-24T22:27:39.324Z,72.30
2017-06-24T22:30:05.759Z,72.30
2017-06-24T22:32:32.148Z,72.40
2017-06-24T22:34:58.532Z,71.50
2017-06-24T22:37:25.080Z,71.60
2017-06-24T22:39:51.475Z,70.60
2017-06-24T22:42:17.877Z,69.80
2017-06-24T22:44:44.320Z,68.90
2017-06-24T22:47:10.769Z,69.20
2017-06-24T22:49:37.156Z,68.00
2017-06-24T22:52:03.592Z,67.80
2017-06-24T22:54:29.995Z,67.80
2017-06-24T22:56:57.464Z,68.00
2017-06-24T22:59:24.588Z,67.50
2017-06-24T23:01:50.987Z,67.50
2017-06-24T23:04:17.428Z,66.10
2017-06-24T23:06:43.886Z,65.60
2017-06-24T23:09:10.292Z,64.60
2017-06-24T23:11:36.760Z,64.20
2017-06-24T23:14:03.181Z,62.80
2017-06-24T23:16:29.581Z,62.70
2017-06-24T23:18:56.030Z,60.00
2017-06-24T23:21:22.436Z,60.20
2017-06-24T23:23:48.836Z,60.60
2017-06-24T23:26:16.013Z,77.10
2017-06-24T23:28:42.879Z,77.00
2017-06-24T23:31:09.356Z,80.80
2017-06-24T23:33:35.796Z,82.30
2017-06-24T23:36:02.200Z,84.90
2017-06-24T23:38:28.628Z,85.10
2017-06-24T23:40:55.048Z,85.40
2017-06-24T23:43:21.473Z,89.30
2017-06-24T23:45:47.920Z,91.20
2017-06-24T23:48:14.464Z,92.60
2017-06-24T23:50:40.849Z,93.10
2017-06-24T23:53:08.024Z,92.10
2017-06-24T23:55:34.423Z,92.10
2017-06-24T23:58:00.908Z,93.60
